Time;durP1;ratioP1;P1;durP2;ratioP2;P2;SDS_P1;SDS_P2;PMS_P1;PMS_P2;Temp;Humidity;BMP_temperature;BMP_pressure;BME280_temperature;BME280_humidity;BME280_pressure;Samples;Min_cycle;Max_cycle;Signal;HPM_P1;HPM_P2
2021/08/08 00:00:55;;;;;;;14.63;2.42;;;17.10;99.90;;;;;;4973907;28;20166;-80
2021/08/08 00:03:21;;;;;;;7.03;2.85;;;17.00;99.90;;;;;;4974091;28;20530;-82
2021/08/08 00:05:47;;;;;;;12.15;2.70;;;17.00;99.90;;;;;;4973826;28;20200;-82
2021/08/08 00:08:13;;;;;;;7.47;2.47;;;17.00;99.90;;;;;;4972791;28;20173;-82
2021/08/08 00:10:40;;;;;;;7.40;2.40;;;17.00;99.90;;;;;;4973882;28;20189;-80
2021/08/08 00:13:06;;;;;;;13.07;2.72;;;17.00;99.90;;;;;;4973610;28;20169;-80
2021/08/08 00:15:34;;;;;;;13.45;2.67;;;17.00;99.90;;;;;;4973842;28;20272;-78
2021/08/08 00:18:02;;;;;;;7.43;1.98;;;17.00;99.90;;;;;;4973579;28;20301;-81
2021/08/08 00:20:28;;;;;;;6.13;2.00;;;17.00;99.90;;;;;;4974001;28;20166;-81
2021/08/08 00:22:53;;;;;;;5.68;1.92;;;17.00;99.90;;;;;;4973859;28;20232;-82
2021/08/08 00:25:19;;;;;;;12.57;2.88;;;16.90;99.90;;;;;;4973892;28;20544;-82
2021/08/08 00:27:45;;;;;;;6.03;2.17;;;16.80;99.90;;;;;;4973457;28;20233;-81
2021/08/08 00:30:10;;;;;;;12.07;2.53;;;16.80;99.90;;;;;;4973894;28;20735;-81
2021/08/08 00:32:36;;;;;;;9.45;2.25;;;16.90;99.90;;;;;;4973482;28;20701;-80
2021/08/08 00:35:02;;;;;;;9.15;2.00;;;16.90;99.90;;;;;;4973612;28;20165;-82
2021/08/08 00:37:28;;;;;;;6.57;2.00;;;16.90;99.90;;;;;;4972224;28;20209;-82
2021/08/08 00:39:53;;;;;;;12.52;1.90;;;16.80;99.90;;;;;;4973696;28;20166;-82
2021/08/08 00:42:19;;;;;;;8.70;2.42;;;16.70;99.90;;;;;;4972087;28;20166;-81
2021/08/08 00:44:44;;;;;;;5.57;1.83;;;16.60;99.90;;;;;;4973242;28;20174;-83
2021/08/08 00:47:10;;;;;;;9.15;2.55;;;16.60;99.90;;;;;;4973295;28;20273;-83
2021/08/08 00:49:36;;;;;;;13.10;2.75;;;16.50;99.90;;;;;;4973284;28;20167;-82
2021/08/08 00:52:02;;;;;;;7.40;2.30;;;16.30;99.90;;;;;;4973597;28;20176;-83
2021/08/08 00:54:28;;;;;;;6.30;2.00;;;16.40;99.90;;;;;;4973724;28;20161;-83
2021/08/08 00:56:53;;;;;;;13.02;1.98;;;16.40;99.90;;;;;;4973757;28;20256;-83
2021/08/08 00:59:19;;;;;;;11.13;2.63;;;16.30;99.90;;;;;;4973532;28;20200;-80
2021/08/08 01:01:47;;;;;;;10.80;3.10;;;16.20;99.90;;;;;;4973646;28;20210;-83
2021/08/08 01:04:17;;;;;;;11.77;2.40;;;16.20;99.90;;;;;;4973489;28;20277;-83
2021/08/08 01:06:51;;;;;;;4.75;2.00;;;16.20;99.90;;;;;;4972970;28;20232;-83
2021/08/08 01:09:20;;;;;;;7.97;2.13;;;16.30;99.90;;;;;;4974296;28;20170;-83
2021/08/08 01:11:47;;;;;;;11.10;2.97;;;16.30;99.90;;;;;;4976873;28;20177;-83
2021/08/08 01:14:14;;;;;;;5.93;1.92;;;16.40;99.90;;;;;;4976656;28;20187;-83
2021/08/08 01:16:42;;;;;;;15.23;3.08;;;16.30;99.90;;;;;;4976768;28;20205;-79
2021/08/08 01:19:10;;;;;;;13.85;2.33;;;16.20;99.90;;;;;;4976186;28;20623;-83
2021/08/08 01:21:37;;;;;;;7.25;2.13;;;16.20;99.90;;;;;;4976275;28;20177;-82
2021/08/08 01:24:04;;;;;;;7.35;2.30;;;16.10;99.90;;;;;;4976561;28;20200;-82
2021/08/08 01:26:32;;;;;;;10.63;2.85;;;16.10;99.90;;;;;;4976466;28;20248;-83
2021/08/08 01:28:59;;;;;;;17.70;3.15;;;16.10;99.90;;;;;;4976899;28;20174;-83
2021/08/08 01:31:25;;;;;;;16.95;3.55;;;16.10;99.90;;;;;;4976402;28;20166;-83
2021/08/08 01:33:50;;;;;;;9.38;3.05;;;16.20;99.90;;;;;;4976065;28;20723;-83
2021/08/08 01:36:17;;;;;;;10.82;2.88;;;16.30;99.90;;;;;;4977408;28;20198;-82
2021/08/08 01:38:49;;;;;;;14.50;2.45;;;16.40;99.90;;;;;;4976398;28;20189;-81
2021/08/08 01:41:17;;;;;;;9.15;2.42;;;16.40;99.90;;;;;;4976045;28;20193;-82
2021/08/08 01:43:47;;;;;;;14.85;2.70;;;16.50;99.90;;;;;;4976264;28;20177;-82
2021/08/08 01:46:15;;;;;;;16.63;2.63;;;16.60;99.90;;;;;;4975752;28;20248;-82
2021/08/08 01:48:46;;;;;;;9.55;2.22;;;16.60;99.90;;;;;;4975503;28;20217;-83
2021/08/08 01:51:12;;;;;;;23.98;2.28;;;16.60;99.90;;;;;;4975892;28;20578;-81
2021/08/08 01:53:39;;;;;;;6.25;2.08;;;16.70;99.90;;;;;;4974685;28;20174;-82
2021/08/08 01:56:05;;;;;;;23.95;3.17;;;16.70;99.90;;;;;;4975990;28;20182;-83
2021/08/08 01:58:31;;;;;;;5.88;2.45;;;16.70;99.90;;;;;;4975974;28;20674;-83
2021/08/08 02:00:57;;;;;;;15.70;2.78;;;16.80;99.90;;;;;;4976269;28;20256;-82
2021/08/08 02:03:38;;;;;;;14.18;3.58;;;16.80;99.90;;;;;;4975972;28;20185;-83
2021/08/08 02:06:05;;;;;;;12.50;2.63;;;16.60;99.90;;;;;;4975928;28;20338;-81
2021/08/08 02:08:32;;;;;;;2.95;1.90;;;16.70;99.90;;;;;;4974738;28;20264;-82
2021/08/08 02:10:58;;;;;;;7.72;2.75;;;16.70;99.90;;;;;;4976013;28;20166;-82
2021/08/08 02:13:23;;;;;;;21.13;3.60;;;16.60;99.90;;;;;;4975557;28;20184;-82
2021/08/08 02:15:49;;;;;;;12.98;2.67;;;16.40;99.90;;;;;;4975761;28;20220;-82
2021/08/08 02:18:16;;;;;;;10.20;1.98;;;16.40;99.90;;;;;;4976317;28;20209;-82
2021/08/08 02:20:43;;;;;;;14.85;2.55;;;16.30;99.90;;;;;;4974824;28;20619;-82
2021/08/08 02:23:08;;;;;;;12.20;2.60;;;16.30;99.90;;;;;;4974526;28;20199;-83
2021/08/08 02:25:34;;;;;;;13.32;2.88;;;16.30;99.90;;;;;;4975267;28;20630;-83
2021/08/08 02:27:59;;;;;;;18.83;2.60;;;16.40;99.90;;;;;;4976008;28;20646;-82
2021/08/08 02:30:25;;;;;;;6.38;2.67;;;16.30;99.90;;;;;;4976153;28;20177;-83
2021/08/08 02:32:51;;;;;;;13.13;2.80;;;16.40;99.90;;;;;;4975630;28;20180;-83
2021/08/08 02:35:17;;;;;;;11.23;2.42;;;16.50;99.90;;;;;;4975542;28;20177;-82
2021/08/08 02:37:42;;;;;;;5.78;1.88;;;16.50;99.90;;;;;;4975172;28;20214;-82
2021/08/08 02:40:09;;;;;;;13.55;3.08;;;16.60;99.90;;;;;;4975205;28;20680;-83
2021/08/08 02:42:35;;;;;;;8.52;2.42;;;16.50;99.90;;;;;;4975224;28;20232;-83
2021/08/08 02:45:00;;;;;;;17.00;3.03;;;16.50;99.90;;;;;;4975193;28;20177;-82
2021/08/08 02:47:30;;;;;;;10.40;2.22;;;16.50;99.90;;;;;;4975250;28;20201;-83
2021/08/08 02:49:57;;;;;;;5.15;2.58;;;16.50;99.90;;;;;;4976446;28;20184;-84
2021/08/08 02:52:24;;;;;;;12.05;2.60;;;16.40;99.90;;;;;;4983826;28;20241;-79
2021/08/08 02:54:49;;;;;;;7.57;2.83;;;16.30;99.90;;;;;;4975459;28;20166;-82
2021/08/08 02:57:15;;;;;;;10.35;2.70;;;16.40;99.90;;;;;;4974852;28;20212;-80
2021/08/08 02:59:40;;;;;;;9.70;2.55;;;16.30;99.90;;;;;;4975022;28;20228;-82
2021/08/08 03:02:07;;;;;;;14.85;2.30;;;16.30;99.90;;;;;;4975617;28;20241;-83
2021/08/08 03:04:32;;;;;;;9.65;2.72;;;16.40;99.90;;;;;;4981069;28;20169;-82
2021/08/08 03:06:58;;;;;;;14.98;2.65;;;16.50;99.90;;;;;;4987701;28;20681;-83
2021/08/08 03:09:24;;;;;;;13.48;2.30;;;16.50;99.90;;;;;;4988659;28;20201;-83
2021/08/08 03:11:49;;;;;;;14.80;2.60;;;16.40;99.90;;;;;;4984762;28;20221;-84
2021/08/08 03:14:17;;;;;;;13.25;2.25;;;16.40;99.90;;;;;;4982948;28;20177;-83
2021/08/08 03:16:44;;;;;;;14.80;3.38;;;16.50;99.90;;;;;;4985183;28;20720;-83
2021/08/08 03:19:11;;;;;;;12.98;2.78;;;16.50;99.90;;;;;;4986464;28;20166;-83
2021/08/08 03:21:37;;;;;;;7.47;2.40;;;16.50;99.90;;;;;;4985822;28;20262;-83
2021/08/08 03:24:03;;;;;;;11.43;2.53;;;16.50;99.90;;;;;;4983187;28;20272;-78
2021/08/08 03:26:29;;;;;;;12.20;2.80;;;16.60;99.90;;;;;;4980442;28;20193;-78
2021/08/08 03:28:55;;;;;;;16.40;2.65;;;16.60;99.90;;;;;;4977630;28;20177;-80
2021/08/08 03:31:20;;;;;;;13.15;2.28;;;16.60;99.90;;;;;;4976577;28;20169;-78
2021/08/08 03:33:46;;;;;;;12.60;2.53;;;16.60;99.90;;;;;;4973799;28;20661;-78
2021/08/08 03:36:12;;;;;;;17.10;2.42;;;16.50;99.90;;;;;;4973829;28;20190;-78
2021/08/08 03:38:38;;;;;;;9.30;2.92;;;16.40;99.90;;;;;;4974093;28;20233;-78
2021/08/08 03:41:04;;;;;;;13.48;2.03;;;16.50;99.90;;;;;;4974331;28;20177;-78
2021/08/08 03:43:29;;;;;;;14.73;2.85;;;16.40;99.90;;;;;;4973949;28;20170;-78
2021/08/08 03:45:55;;;;;;;17.70;2.80;;;16.50;99.90;;;;;;4974127;28;20190;-82
2021/08/08 03:48:21;;;;;;;15.90;3.42;;;16.40;99.90;;;;;;4973171;28;20550;-83
2021/08/08 03:50:47;;;;;;;14.75;2.67;;;16.50;99.90;;;;;;4974210;28;20228;-83
2021/08/08 03:53:13;;;;;;;13.32;3.10;;;16.50;99.90;;;;;;4973243;28;20224;-82
2021/08/08 03:55:38;;;;;;;10.18;2.30;;;16.40;99.90;;;;;;4974205;28;20173;-83
2021/08/08 03:58:04;;;;;;;17.27;3.03;;;16.50;99.90;;;;;;4974473;28;20212;-82
2021/08/08 04:00:30;;;;;;;10.98;2.88;;;16.40;99.90;;;;;;4974221;28;20169;-83
2021/08/08 04:02:56;;;;;;;14.57;2.95;;;16.30;99.90;;;;;;4974153;28;20176;-82
2021/08/08 04:05:21;;;;;;;8.32;2.40;;;16.40;99.90;;;;;;4974394;28;20253;-82
2021/08/08 04:07:47;;;;;;;9.55;2.70;;;16.40;99.90;;;;;;4973992;28;20199;-84
2021/08/08 04:10:13;;;;;;;10.60;3.00;;;16.50;99.90;;;;;;4974254;28;20511;-83
2021/08/08 04:12:39;;;;;;;11.32;3.20;;;16.50;99.90;;;;;;4974170;28;20627;-83
2021/08/08 04:15:05;;;;;;;13.30;2.47;;;16.50;99.90;;;;;;4972708;28;20173;-80
2021/08/08 04:17:31;;;;;;;12.82;3.15;;;16.60;99.90;;;;;;4973934;28;20214;-82
2021/08/08 04:19:57;;;;;;;10.02;2.88;;;16.50;99.90;;;;;;4972938;28;20168;-82
2021/08/08 04:22:23;;;;;;;5.50;2.50;;;16.50;99.90;;;;;;4974738;28;20210;-82
2021/08/08 04:24:49;;;;;;;14.13;3.17;;;16.50;99.90;;;;;;4973788;28;20261;-83
2021/08/08 04:27:14;;;;;;;18.77;3.58;;;16.50;99.90;;;;;;4972505;28;20280;-84
2021/08/08 04:29:41;;;;;;;6.50;2.20;;;16.50;99.90;;;;;;4973926;28;20197;-83
2021/08/08 04:32:08;;;;;;;9.73;2.80;;;16.50;99.90;;;;;;4973672;28;20166;-83
2021/08/08 04:34:34;;;;;;;13.75;3.35;;;16.50;99.90;;;;;;4972466;28;20162;-82
2021/08/08 04:37:00;;;;;;;15.40;2.90;;;16.50;99.90;;;;;;4974173;28;20216;-83
2021/08/08 04:39:26;;;;;;;8.60;2.88;;;16.40;99.90;;;;;;4972346;28;20182;-83
2021/08/08 04:41:52;;;;;;;6.97;2.97;;;16.40;99.90;;;;;;4973752;28;20678;-82
2021/08/08 04:44:21;;;;;;;10.98;2.53;;;16.30;99.90;;;;;;4974714;28;20176;-82
2021/08/08 04:46:48;;;;;;;7.32;2.78;;;16.40;99.90;;;;;;4977433;28;20189;-83
2021/08/08 04:49:14;;;;;;;11.90;2.35;;;16.40;99.90;;;;;;4977311;28;20254;-83
2021/08/08 04:51:41;;;;;;;14.30;2.97;;;16.30;99.90;;;;;;4977631;28;20173;-83
2021/08/08 04:54:11;;;;;;;12.23;3.25;;;16.40;99.90;;;;;;4977154;28;20253;-81
2021/08/08 04:56:36;;;;;;;10.18;2.70;;;16.40;99.90;;;;;;4975833;28;20282;-82
2021/08/08 04:59:03;;;;;;;9.45;2.88;;;16.40;99.90;;;;;;4976100;28;20265;-83
2021/08/08 05:01:29;;;;;;;14.82;3.15;;;16.30;99.90;;;;;;4977080;28;20660;-82
2021/08/08 05:03:56;;;;;;;12.82;3.85;;;16.30;99.90;;;;;;4977723;28;20200;-82
2021/08/08 05:06:22;;;;;;;10.98;3.30;;;16.30;99.90;;;;;;4977160;28;20190;-82
2021/08/08 05:08:47;;;;;;;11.07;2.42;;;16.30;99.90;;;;;;4976889;28;20174;-82
2021/08/08 05:11:17;;;;;;;6.95;2.97;;;16.10;99.90;;;;;;4977011;28;20173;-82
2021/08/08 05:13:42;;;;;;;11.93;3.13;;;16.10;99.90;;;;;;4977166;28;20686;-83
2021/08/08 05:16:08;;;;;;;16.85;2.60;;;16.20;99.90;;;;;;4976685;28;20318;-81
2021/08/08 05:18:34;;;;;;;16.30;3.65;;;16.50;99.90;;;;;;4976233;28;20212;-81
2021/08/08 05:20:59;;;;;;;14.13;2.90;;;16.50;99.90;;;;;;4975153;28;20266;-82
2021/08/08 05:23:25;;;;;;;19.80;3.70;;;16.60;99.90;;;;;;4976713;28;20253;-81
2021/08/08 05:25:56;;;;;;;12.95;2.63;;;16.40;99.90;;;;;;4976685;28;20654;-82
2021/08/08 05:28:21;;;;;;;14.43;2.67;;;16.40;99.90;;;;;;4976611;28;20162;-83
2021/08/08 05:30:47;;;;;;;8.20;2.67;;;16.50;99.90;;;;;;4977111;28;20229;-83
2021/08/08 05:33:12;;;;;;;16.70;3.50;;;16.60;99.90;;;;;;4976757;28;20531;-82
2021/08/08 05:35:38;;;;;;;11.95;2.67;;;16.70;99.90;;;;;;4976474;28;20158;-84
2021/08/08 05:38:04;;;;;;;12.82;3.35;;;16.80;99.90;;;;;;4976254;28;20214;-83
2021/08/08 05:40:29;;;;;;;11.23;2.75;;;16.70;99.90;;;;;;4976334;28;20169;-82
2021/08/08 05:42:55;;;;;;;15.05;3.72;;;16.60;99.90;;;;;;4976541;28;20180;-83
2021/08/08 05:45:22;;;;;;;10.48;3.13;;;16.60;99.90;;;;;;4976139;28;20209;-82
2021/08/08 05:47:48;;;;;;;6.95;2.65;;;16.60;99.90;;;;;;4975053;28;20190;-82
2021/08/08 05:50:14;;;;;;;21.42;4.25;;;16.40;99.90;;;;;;4976486;28;20657;-84
2021/08/08 05:52:39;;;;;;;15.40;3.28;;;16.60;99.90;;;;;;4976602;28;20677;-84
2021/08/08 05:55:05;;;;;;;11.85;2.55;;;16.60;99.90;;;;;;4975754;28;20619;-83
2021/08/08 05:57:31;;;;;;;17.17;3.50;;;16.60;99.90;;;;;;4975433;28;20224;-81
2021/08/08 05:59:56;;;;;;;14.25;4.22;;;16.60;99.90;;;;;;4976100;28;20197;-82
2021/08/08 06:02:22;;;;;;;10.40;3.05;;;16.60;99.90;;;;;;4976016;28;20639;-84
2021/08/08 06:04:49;;;;;;;5.00;2.80;;;16.70;99.90;;;;;;4976154;28;20296;-80
2021/08/08 06:07:15;;;;;;;14.23;2.67;;;16.90;99.90;;;;;;4975921;28;20193;-82
2021/08/08 06:09:41;;;;;;;16.33;3.22;;;16.80;99.90;;;;;;4976294;28;20241;-80
2021/08/08 06:12:07;;;;;;;7.32;2.35;;;16.80;99.90;;;;;;4975728;28;20166;-81
2021/08/08 06:14:34;;;;;;;9.77;3.20;;;16.80;99.90;;;;;;4975501;28;20203;-80
2021/08/08 06:16:59;;;;;;;9.07;2.60;;;16.70;99.90;;;;;;4975224;28;20210;-77
2021/08/08 06:19:25;;;;;;;17.30;3.05;;;16.90;99.90;;;;;;4975609;28;20182;-78
2021/08/08 06:21:51;;;;;;;11.50;2.65;;;16.80;99.90;;;;;;4975444;28;20162;-81
2021/08/08 06:24:17;;;;;;;4.95;2.00;;;17.10;99.90;;;;;;4975788;28;20170;-79
2021/08/08 06:26:43;;;;;;;5.80;2.33;;;17.00;99.90;;;;;;4975421;28;20189;-80
2021/08/08 06:29:08;;;;;;;12.98;2.92;;;17.10;99.90;;;;;;4975263;28;20185;-79
2021/08/08 06:31:36;;;;;;;12.82;2.40;;;17.10;99.90;;;;;;4975130;28;20170;-80
2021/08/08 06:34:02;;;;;;;16.85;2.92;;;17.20;99.90;;;;;;4974736;28;20557;-81
2021/08/08 06:36:28;;;;;;;9.95;2.42;;;17.30;99.90;;;;;;4974641;28;20181;-80
2021/08/08 06:38:54;;;;;;;6.43;2.40;;;17.30;99.90;;;;;;4974406;28;20697;-80
2021/08/08 06:41:20;;;;;;;17.25;2.75;;;17.30;99.90;;;;;;4974880;28;20165;-80
2021/08/08 06:43:45;;;;;;;15.63;2.53;;;17.40;99.90;;;;;;4975472;28;20269;-80
2021/08/08 06:46:11;;;;;;;9.70;1.95;;;17.20;99.90;;;;;;4977753;28;20198;-80
2021/08/08 06:48:36;;;;;;;10.98;2.42;;;17.30;99.90;;;;;;4974460;28;20244;-81
2021/08/08 06:51:03;;;;;;;11.05;3.30;;;17.50;99.90;;;;;;4975442;28;20166;-85
2021/08/08 06:53:29;;;;;;;11.18;2.25;;;17.60;99.90;;;;;;4977392;28;20179;-85
2021/08/08 06:55:54;;;;;;;13.77;3.50;;;17.70;99.90;;;;;;4977519;28;20198;-87
2021/08/08 06:58:20;;;;;;;9.98;2.70;;;17.90;99.90;;;;;;4976367;28;20268;-86
2021/08/08 07:00:46;;;;;;;11.20;2.83;;;18.00;99.90;;;;;;4979459;28;20165;-87
2021/08/08 07:03:12;;;;;;;8.85;2.47;;;17.70;99.90;;;;;;4990910;28;20225;-87
2021/08/08 07:05:38;;;;;;;13.38;2.50;;;17.60;99.90;;;;;;4994062;28;20253;-85
2021/08/08 07:08:04;;;;;;;8.95;2.13;;;17.50;99.90;;;;;;4993625;28;20173;-86
2021/08/08 07:10:30;;;;;;;12.20;2.63;;;17.50;99.90;;;;;;4993742;28;20174;-86
2021/08/08 07:12:56;;;;;;;10.30;2.53;;;17.70;99.90;;;;;;4994209;28;20217;-85
2021/08/08 07:15:21;;;;;;;4.93;2.22;;;17.80;99.90;;;;;;4995274;28;20193;-84
2021/08/08 07:17:47;;;;;;;10.00;2.38;;;17.90;99.90;;;;;;4992853;28;20210;-82
2021/08/08 07:20:13;;;;;;;14.32;2.85;;;17.70;99.90;;;;;;4993411;28;20150;-87
2021/08/08 07:22:38;;;;;;;11.80;2.72;;;17.60;99.90;;;;;;4994792;28;20253;-86
2021/08/08 07:25:05;;;;;;;8.02;1.85;;;17.70;99.90;;;;;;4994674;28;20150;-85
2021/08/08 07:27:30;;;;;;;13.23;2.78;;;17.60;99.90;;;;;;4994581;28;20182;-84
2021/08/08 07:29:56;;;;;;;10.60;2.28;;;17.70;99.90;;;;;;4997358;28;20180;-85
2021/08/08 07:32:22;;;;;;;12.50;2.25;;;17.70;99.90;;;;;;4997850;28;20173;-85
2021/08/08 07:34:47;;;;;;;7.07;2.00;;;17.50;99.90;;;;;;4996535;28;20223;-87
2021/08/08 07:37:14;;;;;;;8.93;2.55;;;17.50;99.90;;;;;;4997307;28;20233;-86
2021/08/08 07:39:39;;;;;;;8.05;2.28;;;17.60;99.90;;;;;;4985857;28;20170;-82
2021/08/08 07:42:05;;;;;;;9.23;2.42;;;17.60;99.90;;;;;;4982418;28;20228;-81
2021/08/08 07:44:31;;;;;;;9.20;2.13;;;17.80;99.90;;;;;;4984515;28;20196;-80
2021/08/08 07:46:56;;;;;;;11.82;1.83;;;18.10;99.90;;;;;;4980561;28;20280;-81
2021/08/08 07:49:22;;;;;;;10.65;2.20;;;18.10;99.90;;;;;;4979646;28;20530;-81
2021/08/08 07:51:47;;;;;;;4.95;1.60;;;18.20;99.90;;;;;;4974269;28;20174;-81
2021/08/08 07:54:13;;;;;;;8.32;2.08;;;18.20;99.90;;;;;;4972613;28;20180;-81
2021/08/08 07:56:39;;;;;;;6.47;3.25;;;18.30;99.90;;;;;;4972755;28;20205;-81
2021/08/08 07:59:04;;;;;;;19.65;2.72;;;18.20;99.90;;;;;;4974869;28;20170;-82
2021/08/08 08:01:31;;;;;;;5.25;2.13;;;17.90;99.90;;;;;;4972962;28;20188;-81
2021/08/08 08:03:57;;;;;;;13.70;2.83;;;17.70;99.90;;;;;;4974220;28;20244;-82
2021/08/08 08:06:23;;;;;;;12.80;2.20;;;17.90;99.90;;;;;;4979039;28;20554;-85
2021/08/08 08:08:48;;;;;;;12.48;2.28;;;17.80;99.90;;;;;;4980366;28;20182;-81
2021/08/08 08:11:14;;;;;;;9.93;2.83;;;17.80;99.90;;;;;;4978580;28;20625;-85
2021/08/08 08:13:39;;;;;;;5.35;2.38;;;17.90;99.90;;;;;;4998736;28;20197;-88
2021/08/08 08:16:05;;;;;;;10.20;2.22;;;18.10;99.90;;;;;;5005858;28;20208;-83
2021/08/08 08:18:33;;;;;;;7.65;2.20;;;18.20;99.90;;;;;;5013716;28;20210;-88
2021/08/08 08:20:59;;;;;;;6.82;2.20;;;18.10;99.90;;;;;;4994678;28;20174;-83
2021/08/08 08:23:25;;;;;;;12.88;2.67;;;18.20;99.90;;;;;;4978326;28;20256;-81
2021/08/08 08:25:50;;;;;;;7.95;1.80;;;18.30;99.90;;;;;;4976955;28;20197;-83
2021/08/08 08:28:16;;;;;;;6.70;1.92;;;18.40;99.90;;;;;;4975933;28;20177;-81
2021/08/08 08:30:42;;;;;;;9.73;2.47;;;18.60;99.90;;;;;;4977035;28;20181;-81
2021/08/08 08:33:08;;;;;;;8.02;2.40;;;18.70;99.90;;;;;;4976386;28;20198;-80
2021/08/08 08:35:34;;;;;;;7.38;2.13;;;18.70;99.90;;;;;;4976206;28;20170;-82
2021/08/08 08:38:00;;;;;;;6.57;1.88;;;18.70;99.90;;;;;;4974696;28;20217;-81
2021/08/08 08:40:26;;;;;;;5.50;1.63;;;18.80;99.90;;;;;;4975805;28;20166;-81
2021/08/08 08:42:55;;;;;;;11.18;2.33;;;18.90;99.90;;;;;;4975066;28;20194;-80
2021/08/08 08:45:21;;;;;;;6.00;1.95;;;19.40;99.90;;;;;;4975143;28;20162;-81
2021/08/08 08:47:47;;;;;;;7.60;2.10;;;19.20;99.90;;;;;;4974652;28;20668;-83
2021/08/08 08:50:13;;;;;;;12.95;3.40;;;19.00;99.90;;;;;;4974774;28;20170;-83
2021/08/08 08:52:40;;;;;;;10.52;2.20;;;18.80;99.90;;;;;;4974429;28;20634;-83
2021/08/08 08:55:06;;;;;;;11.40;2.33;;;18.90;99.90;;;;;;4976056;28;20265;-82
2021/08/08 08:57:32;;;;;;;7.72;2.03;;;19.20;99.90;;;;;;4975947;28;20290;-82
2021/08/08 08:59:59;;;;;;;6.25;1.88;;;19.40;99.90;;;;;;4976087;28;20177;-83
2021/08/08 09:02:25;;;;;;;16.88;2.40;;;19.60;99.90;;;;;;4976231;28;20265;-82
2021/08/08 09:04:50;;;;;;;8.00;1.60;;;19.80;99.90;;;;;;4975493;28;20329;-82
2021/08/08 09:07:16;;;;;;;7.40;1.52;;;19.70;99.90;;;;;;4977122;28;20711;-82
2021/08/08 09:09:42;;;;;;;6.93;1.40;;;19.60;99.90;;;;;;4995143;28;20589;-82
2021/08/08 09:12:08;;;;;;;9.18;2.30;;;19.80;99.90;;;;;;4996087;28;20260;-84
2021/08/08 09:14:35;;;;;;;5.43;1.67;;;20.00;99.90;;;;;;4993907;28;20672;-85
2021/08/08 09:17:01;;;;;;;8.25;1.85;;;20.10;99.90;;;;;;4996109;28;20197;-85
2021/08/08 09:19:30;;;;;;;4.68;1.63;;;20.30;99.90;;;;;;4995981;28;20264;-85
2021/08/08 09:21:56;;;;;;;9.57;1.63;;;20.30;99.90;;;;;;4996075;28;20169;-86
2021/08/08 09:24:35;;;;;;;3.88;1.08;;;20.00;99.90;;;;;;4996309;28;20179;-85
2021/08/08 09:27:06;;;;;;;6.80;1.83;;;19.90;99.90;;;;;;4995821;28;20193;-84
2021/08/08 09:29:36;;;;;;;4.85;1.50;;;19.90;99.90;;;;;;4995936;28;20181;-84
2021/08/08 09:32:03;;;;;;;10.23;2.35;;;19.90;99.90;;;;;;4995550;28;20172;-86
2021/08/08 09:34:31;;;;;;;5.13;1.75;;;19.80;99.90;;;;;;4995105;28;20166;-86
2021/08/08 09:37:06;;;;;;;10.88;1.95;;;19.60;99.90;;;;;;4996630;28;20200;-85
2021/08/08 09:39:41;;;;;;;4.63;2.08;;;19.50;99.90;;;;;;4996798;28;20709;-86
2021/08/08 09:42:11;;;;;;;5.88;1.52;;;19.40;99.90;;;;;;4996810;28;20188;-83
2021/08/08 09:44:48;;;;;;;5.60;2.28;;;19.50;99.90;;;;;;4995344;28;20181;-84
2021/08/08 09:47:14;;;;;;;10.25;2.22;;;19.50;99.90;;;;;;4996024;28;20338;-85
2021/08/08 09:49:39;;;;;;;6.03;1.98;;;19.60;99.90;;;;;;4994777;28;20258;-83
2021/08/08 09:52:05;;;;;;;4.03;1.42;;;19.80;99.90;;;;;;4995122;28;20173;-86
2021/08/08 09:54:36;;;;;;;7.75;1.52;;;20.20;99.90;;;;;;4994941;28;20650;-86
2021/08/08 09:57:03;;;;;;;6.15;1.98;;;20.30;99.90;;;;;;4994416;28;20267;-85
2021/08/08 09:59:29;;;;;;;3.15;1.30;;;20.60;99.90;;;;;;4995295;28;20205;-85
2021/08/08 10:01:56;;;;;;;9.38;1.88;;;20.60;99.90;;;;;;4996186;28;20173;-84
2021/08/08 10:04:23;;;;;;;9.52;2.10;;;20.50;99.90;;;;;;4994591;28;20165;-85
2021/08/08 10:06:49;;;;;;;9.77;1.63;;;20.70;99.90;;;;;;4994717;28;20728;-85
2021/08/08 10:09:17;;;;;;;5.43;2.35;;;21.10;99.90;;;;;;4994315;28;20528;-86
2021/08/08 10:11:46;;;;;;;6.47;1.90;;;21.20;99.90;;;;;;4995873;28;20170;-84
2021/08/08 10:14:13;;;;;;;5.80;1.83;;;21.30;99.90;;;;;;4996045;28;20537;-85
2021/08/08 10:16:41;;;;;;;5.63;1.25;;;21.50;99.90;;;;;;4994768;28;20216;-85
2021/08/08 10:19:08;;;;;;;8.38;1.50;;;21.30;99.90;;;;;;4994460;28;20656;-83
2021/08/08 10:21:38;;;;;;;5.75;1.48;;;21.50;99.90;;;;;;4996263;28;20193;-84
2021/08/08 10:24:06;;;;;;;2.25;1.40;;;21.40;99.90;;;;;;4995454;28;20207;-83
2021/08/08 10:26:32;;;;;;;2.45;1.17;;;21.40;99.90;;;;;;4994948;28;20200;-84
2021/08/08 10:29:00;;;;;;;2.38;1.02;;;21.40;99.90;;;;;;4995453;28;20227;-84
2021/08/08 10:31:29;;;;;;;5.13;1.67;;;21.30;99.90;;;;;;4994642;28;20185;-84
2021/08/08 10:33:56;;;;;;;4.75;1.17;;;21.40;99.90;;;;;;4994494;28;20585;-85
2021/08/08 10:36:31;;;;;;;2.83;1.00;;;21.50;99.90;;;;;;4995454;28;20285;-85
2021/08/08 10:39:10;;;;;;;6.32;1.70;;;21.60;99.90;;;;;;4994088;28;20323;-84
2021/08/08 10:41:36;;;;;;;3.95;1.20;;;21.80;99.90;;;;;;4993578;28;20268;-84
2021/08/08 10:44:09;;;;;;;5.32;1.17;;;21.50;99.90;;;;;;4993649;28;20181;-85
2021/08/08 10:46:50;;;;;;;3.47;1.27;;;21.30;99.90;;;;;;4995272;28;20254;-85
2021/08/08 10:49:32;;;;;;;4.38;1.55;;;21.10;99.90;;;;;;4995545;28;20529;-85
2021/08/08 10:51:58;;;;;;;3.50;1.40;;;21.10;99.90;;;;;;4993970;28;20173;-85
2021/08/08 10:54:24;;;;;;;7.78;1.65;;;21.10;99.90;;;;;;4994058;28;20165;-86
2021/08/08 10:56:49;;;;;;;2.67;1.20;;;21.00;99.90;;;;;;4993748;28;20189;-85
2021/08/08 10:59:25;;;;;;;2.60;1.30;;;21.20;99.90;;;;;;4993887;28;20646;-86
2021/08/08 11:02:08;;;;;;;3.05;1.75;;;21.10;99.90;;;;;;4994284;28;20165;-85
2021/08/08 11:04:35;;;;;;;3.10;1.05;;;21.30;99.90;;;;;;4993759;28;20177;-85
2021/08/08 11:07:03;;;;;;;2.20;1.40;;;21.50;99.90;;;;;;4994120;28;20243;-85
2021/08/08 11:09:33;;;;;;;3.17;1.30;;;21.70;99.90;;;;;;4994843;28;20162;-85
2021/08/08 11:11:59;;;;;;;3.03;1.13;;;21.70;99.90;;;;;;4993795;28;20725;-84
2021/08/08 11:14:26;;;;;;;3.45;1.23;;;22.00;99.90;;;;;;4993699;28;20553;-86
2021/08/08 11:17:03;;;;;;;7.30;0.93;;;22.20;99.90;;;;;;4992834;28;20233;-84
2021/08/08 11:19:42;;;;;;;2.70;1.27;;;22.00;99.90;;;;;;4993166;28;20220;-84
2021/08/08 11:22:09;;;;;;;6.32;1.67;;;22.00;99.90;;;;;;4993376;28;20196;-85
2021/08/08 11:24:36;;;;;;;4.32;1.60;;;22.10;99.90;;;;;;4993341;28;20260;-85
2021/08/08 11:27:02;;;;;;;4.28;1.52;;;22.30;99.90;;;;;;4995494;28;20532;-85
2021/08/08 11:29:27;;;;;;;5.00;1.63;;;22.10;99.90;;;;;;4993244;28;20170;-84
2021/08/08 11:31:59;;;;;;;5.43;1.80;;;22.00;99.90;;;;;;4993151;28;20173;-85
2021/08/08 11:34:25;;;;;;;2.20;1.05;;;22.10;99.90;;;;;;4992854;28;20169;-85
2021/08/08 11:36:51;;;;;;;10.13;1.75;;;22.00;99.90;;;;;;4994243;28;20193;-86
2021/08/08 11:39:17;;;;;;;5.32;1.30;;;22.20;99.90;;;;;;4993042;28;20173;-84
2021/08/08 11:41:43;;;;;;;3.78;1.20;;;22.40;99.90;;;;;;4993543;28;20197;-84
2021/08/08 11:44:14;;;;;;;8.32;1.55;;;22.20;99.90;;;;;;4994219;28;20259;-84
2021/08/08 11:46:46;;;;;;;2.72;1.30;;;21.90;99.90;;;;;;4992382;28;20193;-82
2021/08/08 11:49:15;;;;;;;2.75;1.40;;;21.90;99.90;;;;;;4993465;28;20172;-85
2021/08/08 11:51:41;;;;;;;12.23;1.55;;;22.00;99.90;;;;;;4993595;28;20227;-84
2021/08/08 11:54:08;;;;;;;3.08;1.33;;;22.10;99.90;;;;;;4993542;28;20177;-84
2021/08/08 11:56:34;;;;;;;3.38;1.60;;;22.20;99.90;;;;;;4993701;28;20185;-84
2021/08/08 11:59:00;;;;;;;6.80;2.20;;;21.80;99.90;;;;;;4993153;28;20271;-84
2021/08/08 12:01:26;;;;;;;2.03;1.35;;;21.60;99.90;;;;;;4992408;28;20169;-85
2021/08/08 12:04:10;;;;;;;5.88;1.75;;;21.60;99.90;;;;;;4992019;28;20173;-83
2021/08/08 12:06:36;;;;;;;6.00;1.75;;;21.70;99.90;;;;;;4992438;28;20581;-85
2021/08/08 12:09:02;;;;;;;5.47;1.70;;;21.60;99.90;;;;;;4992494;28;20175;-86
2021/08/08 12:11:28;;;;;;;5.50;1.60;;;21.60;99.90;;;;;;4992499;28;20252;-85
2021/08/08 12:14:06;;;;;;;3.90;1.80;;;21.70;99.90;;;;;;4992374;28;20165;-85
2021/08/08 12:16:36;;;;;;;6.07;1.48;;;21.70;99.90;;;;;;4993534;28;20209;-86
2021/08/08 12:19:03;;;;;;;3.67;1.23;;;22.00;99.90;;;;;;4993791;28;20212;-84
2021/08/08 12:21:40;;;;;;;2.67;1.70;;;22.20;99.90;;;;;;4992716;28;20173;-86
2021/08/08 12:24:11;;;;;;;4.45;1.08;;;22.20;99.90;;;;;;4992679;28;20741;-85
2021/08/08 12:26:49;;;;;;;2.88;1.35;;;22.00;99.90;;;;;;4995737;28;20189;-86
2021/08/08 12:29:14;;;;;;;5.40;1.63;;;22.10;99.90;;;;;;4993367;28;20268;-83
2021/08/08 12:31:42;;;;;;;2.17;1.40;;;22.30;99.90;;;;;;4994145;28;20304;-83
2021/08/08 12:34:11;;;;;;;3.22;1.63;;;22.30;99.90;;;;;;4992278;28;20173;-84
2021/08/08 12:36:41;;;;;;;4.28;1.58;;;22.10;99.90;;;;;;4993103;28;20231;-82
2021/08/08 12:39:08;;;;;;;4.30;1.55;;;21.90;99.90;;;;;;4993397;28;20247;-82
2021/08/08 12:41:38;;;;;;;2.65;1.05;;;21.10;99.90;;;;;;4991885;28;20169;-82